createdAt,value
2022-09-07T00:01:08.415Z,99.90
2022-09-07T00:03:36.897Z,99.90
2022-09-07T00:06:07.793Z,99.90
2022-09-07T00:08:36.111Z,99.90
2022-09-07T00:11:07.231Z,99.90
2022-09-07T00:13:39.078Z,99.90
2022-09-07T00:16:08.865Z,99.90
2022-09-07T00:18:42.400Z,99.90
2022-09-07T00:21:16.103Z,99.90
2022-09-07T00:23:44.760Z,99.90
2022-09-07T00:26:14.768Z,99.90
2022-09-07T00:28:44.507Z,99.90
2022-09-07T00:31:14.924Z,99.90
2022-09-07T00:33:43.459Z,99.90
2022-09-07T00:36:12.159Z,99.90
2022-09-07T00:38:40.377Z,99.90
2022-09-07T00:41:08.864Z,99.90
2022-09-07T00:43:38.709Z,99.90
2022-09-07T00:46:13.813Z,99.90
2022-09-07T00:48:46.763Z,99.90
2022-09-07T00:51:19.388Z,99.90
2022-09-07T00:53:54.351Z,99.90
2022-09-07T00:56:24.593Z,99.90
2022-09-07T00:58:55.753Z,99.90
2022-09-07T01:01:25.393Z,99.90
2022-09-07T01:03:56.182Z,99.90
2022-09-07T01:06:28.062Z,99.90
2022-09-07T01:09:00.940Z,99.90
2022-09-07T01:11:30.113Z,99.90
2022-09-07T01:13:58.690Z,99.90
2022-09-07T01:16:42.962Z,99.90
2022-09-07T01:19:35.838Z,99.90
2022-09-07T01:22:16.402Z,99.90
2022-09-07T01:24:55.289Z,99.90
2022-09-07T01:28:02.208Z,99.90
2022-09-07T01:30:35.366Z,99.20
2022-09-07T01:33:31.169Z,98.70
2022-09-07T01:36:11.512Z,99.60
2022-09-07T01:38:43.078Z,99.90
2022-09-07T01:41:17.802Z,99.50
2022-09-07T01:43:52.387Z,97.40
2022-09-07T01:46:27.749Z,97.10
2022-09-07T01:49:00.926Z,97.20
2022-09-07T01:51:33.141Z,97.10
2022-09-07T01:54:08.071Z,97.30
2022-09-07T01:56:41.452Z,97.70
2022-09-07T01:59:15.814Z,97.90
2022-09-07T02:01:51.206Z,98.10
2022-09-07T02:04:22.416Z,98.30
2022-09-07T02:06:55.011Z,98.30
2022-09-07T02:09:30.150Z,98.60
2022-09-07T02:12:03.057Z,98.70
2022-09-07T02:14:37.217Z,98.80
2022-09-07T02:17:13.542Z,99.10
2022-09-07T02:19:48.197Z,99.50
2022-09-07T02:22:22.176Z,99.50
2022-09-07T02:24:54.326Z,99.90
2022-09-07T02:27:28.460Z,99.90
2022-09-07T02:29:56.785Z,99.90
2022-09-07T02:32:26.397Z,99.90
2022-09-07T02:34:54.519Z,99.90
2022-09-07T02:37:23.246Z,99.90
2022-09-07T02:39:51.493Z,99.90
2022-09-07T02:42:19.801Z,99.90
2022-09-07T02:44:49.054Z,99.90
2022-09-07T02:47:27.829Z,99.90
2022-09-07T02:50:23.852Z,99.90
2022-09-07T02:53:01.333Z,99.90
2022-09-07T02:55:38.956Z,99.90
2022-09-07T02:58:18.669Z,99.90
2022-09-07T03:00:54.025Z,99.90
2022-09-07T03:03:26.926Z,99.90
2022-09-07T03:06:01.802Z,99.90
2022-09-07T03:08:35.656Z,99.90
2022-09-07T03:11:06.111Z,99.90
2022-09-07T03:13:34.735Z,99.90
2022-09-07T03:16:03.169Z,99.90
2022-09-07T03:18:32.793Z,99.90
2022-09-07T03:21:00.977Z,99.90
2022-09-07T03:23:31.799Z,99.90
2022-09-07T03:25:59.906Z,99.90
2022-09-07T03:28:28.026Z,99.90
2022-09-07T03:30:56.349Z,99.90
2022-09-07T03:33:24.511Z,99.90
2022-09-07T03:36:00.560Z,99.90
2022-09-07T03:38:28.830Z,99.90
2022-09-07T03:41:01.350Z,99.90
2022-09-07T03:43:29.917Z,99.90
2022-09-07T03:45:59.260Z,99.90
2022-09-07T03:48:27.679Z,99.90
2022-09-07T03:51:01.951Z,99.90
2022-09-07T03:53:32.713Z,99.90
2022-09-07T03:56:02.677Z,99.90
2022-09-07T03:58:32.051Z,99.90
2022-09-07T04:01:01.505Z,99.90
2022-09-07T04:03:30.143Z,99.90
2022-09-07T04:06:01.437Z,99.90
2022-09-07T04:08:33.442Z,99.90
2022-09-07T04:11:02.948Z,99.90
2022-09-07T04:13:31.862Z,99.90
2022-09-07T04:15:59.952Z,99.90
2022-09-07T04:18:28.131Z,99.90
2022-09-07T04:21:01.343Z,99.90
2022-09-07T04:23:29.497Z,99.90
2022-09-07T04:25:57.639Z,99.90
2022-09-07T04:28:25.768Z,99.90
2022-09-07T04:30:54.061Z,99.90
2022-09-07T04:33:22.951Z,99.90
2022-09-07T04:35:51.071Z,99.90
2022-09-07T04:38:20.613Z,99.90
2022-09-07T04:40:48.723Z,99.90
2022-09-07T04:43:16.821Z,99.90
2022-09-07T04:45:44.912Z,99.90
2022-09-07T04:48:13.044Z,99.90
2022-09-07T04:50:41.381Z,99.90
2022-09-07T04:53:09.459Z,99.90
2022-09-07T04:55:38.885Z,99.90
2022-09-07T04:58:07.199Z,99.90
2022-09-07T05:00:35.793Z,99.90
2022-09-07T05:03:03.842Z,99.90
2022-09-07T05:05:31.936Z,99.90
2022-09-07T05:08:00.040Z,99.90
2022-09-07T05:10:28.165Z,99.90
2022-09-07T05:12:58.133Z,99.90
2022-09-07T05:15:26.561Z,99.90
2022-09-07T05:17:54.787Z,99.90
2022-09-07T05:20:23.050Z,99.90
2022-09-07T05:22:59.446Z,99.90
2022-09-07T05:25:29.225Z,99.90
2022-09-07T05:27:58.962Z,99.90
2022-09-07T05:33:15.259Z,99.90
2022-09-07T05:35:43.341Z,99.90
2022-09-07T05:38:11.424Z,99.90
2022-09-07T05:40:40.817Z,99.90
2022-09-07T05:43:10.652Z,99.90
2022-09-07T05:45:38.800Z,99.90
2022-09-07T05:48:06.962Z,99.90
2022-09-07T05:50:37.859Z,99.90
2022-09-07T05:53:05.962Z,99.90
2022-09-07T05:55:34.081Z,99.90
2022-09-07T05:58:02.209Z,99.90
2022-09-07T06:00:31.796Z,99.90
2022-09-07T06:03:00.162Z,99.90
2022-09-07T06:05:28.475Z,99.90
2022-09-07T06:07:56.568Z,99.90
2022-09-07T06:13:13.989Z,99.90
2022-09-07T06:15:43.444Z,99.90
2022-09-07T06:18:11.588Z,99.90
2022-09-07T06:20:39.669Z,99.90
2022-09-07T06:23:08.361Z,99.90
2022-09-07T06:25:36.464Z,99.90
2022-09-07T06:28:04.947Z,99.90
2022-09-07T06:30:33.835Z,99.90
2022-09-07T06:33:03.282Z,99.90
2022-09-07T06:35:31.409Z,99.90
2022-09-07T06:37:59.494Z,99.90
2022-09-07T06:40:27.579Z,99.90
2022-09-07T06:42:55.715Z,99.90
2022-09-07T06:45:23.845Z,99.90
2022-09-07T06:47:55.297Z,99.90
2022-09-07T06:50:27.733Z,99.90
2022-09-07T06:55:45.226Z,99.90
2022-09-07T06:58:13.284Z,99.90
2022-09-07T07:00:41.444Z,99.90
2022-09-07T07:03:09.729Z,99.90
2022-09-07T07:05:39.437Z,99.90
2022-09-07T07:08:07.682Z,99.90
2022-09-07T07:10:40.079Z,99.90
2022-09-07T07:13:08.166Z,99.90
2022-09-07T07:15:36.272Z,99.90
2022-09-07T07:18:19.942Z,99.90
2022-09-07T07:20:50.528Z,99.90
2022-09-07T07:23:18.633Z,99.90
2022-09-07T07:25:47.072Z,99.90
2022-09-07T07:31:09.469Z,99.90
2022-09-07T07:33:40.278Z,99.90
2022-09-07T07:36:12.307Z,99.90
2022-09-07T07:44:17.371Z,99.90
2022-09-07T07:46:48.876Z,99.90
2022-09-07T07:49:17.164Z,99.90
2022-09-07T07:54:36.826Z,99.90
2022-09-07T07:57:05.308Z,99.90
2022-09-07T07:59:33.389Z,99.90
2022-09-07T08:02:04.526Z,99.90
2022-09-07T08:04:33.677Z,99.90
2022-09-07T08:07:09.688Z,99.90
2022-09-07T08:09:39.984Z,99.90
2022-09-07T08:12:08.307Z,99.90
2022-09-07T08:14:40.805Z,99.90
2022-09-07T08:17:09.992Z,99.90
2022-09-07T08:19:38.200Z,99.90
2022-09-07T08:22:07.898Z,99.90
2022-09-07T08:24:36.361Z,99.90
2022-09-07T08:27:04.768Z,99.90
2022-09-07T08:29:35.160Z,99.90
2022-09-07T08:32:05.014Z,99.90
2022-09-07T08:34:35.389Z,99.90
2022-09-07T08:37:03.371Z,99.90
2022-09-07T08:39:32.904Z,99.90
2022-09-07T08:42:23.501Z,99.90
2022-09-07T08:44:58.919Z,99.90
2022-09-07T08:47:33.268Z,99.90
2022-09-07T08:50:09.077Z,99.90
2022-09-07T08:52:45.612Z,99.90
2022-09-07T08:55:18.863Z,99.90
2022-09-07T08:57:51.686Z,99.90
2022-09-07T09:00:20.550Z,99.90
2022-09-07T09:03:28.638Z,99.90
2022-09-07T09:05:46.018Z,99.90
2022-09-07T09:08:38.004Z,99.90
2022-09-07T09:11:11.695Z,98.50
2022-09-07T09:13:59.759Z,98.60
2022-09-07T09:16:35.134Z,98.50
2022-09-07T09:19:31.151Z,98.10
2022-09-07T09:22:10.849Z,96.90
2022-09-07T09:24:42.134Z,95.70
2022-09-07T09:27:11.817Z,95.90
2022-09-07T09:29:40.050Z,95.80
2022-09-07T09:32:35.147Z,97.00
2022-09-07T09:35:07.271Z,96.50
2022-09-07T09:37:37.392Z,97.40
2022-09-07T09:40:07.427Z,97.10
2022-09-07T09:42:38.846Z,96.20
2022-09-07T09:45:16.767Z,96.20
2022-09-07T09:47:50.737Z,95.40
2022-09-07T09:53:26.180Z,95.80
2022-09-07T09:55:55.620Z,94.00
2022-09-07T10:01:26.409Z,94.90
2022-09-07T10:03:56.181Z,95.20
2022-09-07T10:06:25.710Z,94.20
2022-09-07T10:08:57.943Z,92.90
2022-09-07T10:14:34.470Z,94.90
2022-09-07T10:17:11.310Z,94.90
2022-09-07T10:19:41.968Z,92.80
2022-09-07T10:22:24.914Z,91.30
2022-09-07T10:24:54.177Z,90.80
2022-09-07T10:27:31.737Z,90.70
2022-09-07T10:30:01.916Z,85.70
2022-09-07T10:32:51.184Z,90.20
2022-09-07T10:35:25.181Z,89.70
2022-09-07T10:38:00.560Z,91.00
2022-09-07T10:40:34.216Z,91.10
2022-09-07T10:43:21.526Z,90.30
2022-09-07T10:49:16.449Z,90.70
2022-09-07T10:51:55.203Z,87.90
2022-09-07T10:54:33.146Z,86.10
2022-09-07T10:57:10.284Z,81.90
2022-09-07T11:00:07.866Z,82.10
2022-09-07T11:05:56.009Z,83.70
2022-09-07T11:09:15.007Z,86.10
2022-09-07T11:14:20.651Z,86.80
2022-09-07T11:16:54.088Z,89.10
2022-09-07T11:19:36.933Z,89.80
2022-09-07T11:22:16.130Z,90.20
2022-09-07T11:25:29.117Z,90.80
2022-09-07T11:27:43.588Z,91.50
2022-09-07T11:30:20.762Z,91.40
2022-09-07T11:32:59.440Z,92.40
2022-09-07T11:35:39.894Z,91.90
2022-09-07T11:38:15.936Z,91.90
2022-09-07T11:40:51.689Z,91.90
2022-09-07T11:43:23.788Z,91.80
2022-09-07T11:45:55.785Z,91.40
2022-09-07T11:48:32.331Z,91.40
2022-09-07T11:51:05.658Z,92.40
2022-09-07T11:53:36.916Z,92.30
2022-09-07T11:56:08.507Z,92.00
2022-09-07T11:59:04.191Z,92.00
2022-09-07T12:01:41.303Z,92.10
2022-09-07T12:04:42.519Z,92.70
2022-09-07T12:07:38.140Z,93.10
2022-09-07T12:10:41.998Z,93.60
2022-09-07T12:13:33.175Z,93.10
2022-09-07T12:16:06.775Z,92.50
2022-09-07T12:18:53.852Z,91.80
2022-09-07T12:21:33.221Z,93.10
2022-09-07T12:24:02.743Z,92.50
2022-09-07T12:26:51.575Z,93.80
2022-09-07T12:29:25.062Z,94.00
2022-09-07T12:31:58.823Z,92.10
2022-09-07T12:34:52.432Z,91.50
2022-09-07T12:37:43.359Z,92.20
2022-09-07T12:40:59.674Z,92.10
2022-09-07T12:44:07.416Z,92.00
2022-09-07T12:46:51.711Z,92.80
2022-09-07T12:49:45.816Z,92.30
2022-09-07T12:52:51.828Z,91.70
2022-09-07T12:56:15.578Z,92.00
2022-09-07T12:58:37.128Z,89.80
2022-09-07T13:01:21.852Z,90.00
2022-09-07T13:04:27.969Z,91.20
2022-09-07T13:07:24.113Z,90.50
2022-09-07T13:09:57.662Z,90.20
2022-09-07T13:15:43.685Z,92.20
2022-09-07T13:18:39.659Z,91.10
2022-09-07T13:21:39.840Z,90.50
2022-09-07T13:24:53.077Z,90.70
2022-09-07T13:27:51.231Z,91.70
2022-09-07T13:30:31.355Z,90.10
2022-09-07T13:33:39.297Z,92.40
2022-09-07T13:36:24.176Z,91.00
2022-09-07T13:38:53.356Z,90.00
2022-09-07T13:41:24.471Z,91.00
2022-09-07T13:43:58.642Z,92.50
2022-09-07T13:46:48.990Z,91.70
2022-09-07T13:49:30.236Z,91.90
2022-09-07T13:52:06.801Z,91.90
2022-09-07T13:54:51.330Z,90.90
2022-09-07T13:57:27.025Z,90.50
2022-09-07T13:59:57.556Z,90.90
2022-09-07T14:02:28.559Z,90.20
2022-09-07T14:05:00.371Z,90.90
2022-09-07T14:07:32.042Z,89.50
2022-09-07T14:10:15.002Z,88.10
2022-09-07T14:12:46.124Z,87.40
2022-09-07T14:15:23.755Z,88.20
2022-09-07T14:18:03.187Z,86.50
2022-09-07T14:20:32.397Z,86.70
2022-09-07T14:23:02.172Z,88.00
2022-09-07T14:25:30.627Z,89.70
2022-09-07T14:28:32.311Z,91.80
2022-09-07T14:31:01.160Z,91.20
2022-09-07T14:33:30.483Z,92.00
2022-09-07T14:36:00.153Z,92.80
2022-09-07T14:41:22.161Z,93.30
2022-09-07T14:43:54.882Z,92.40
2022-09-07T14:46:26.358Z,92.40
2022-09-07T14:48:55.775Z,91.40
2022-09-07T14:51:35.048Z,93.20
2022-09-07T14:54:07.317Z,92.60
2022-09-07T14:56:36.973Z,91.40
2022-09-07T14:59:33.573Z,92.30
2022-09-07T15:02:37.804Z,91.50
2022-09-07T15:05:22.564Z,92.10
2022-09-07T15:07:53.030Z,92.50
2022-09-07T15:10:31.444Z,93.60
2022-09-07T15:13:01.317Z,93.50
2022-09-07T15:15:32.362Z,93.90
2022-09-07T15:18:08.194Z,92.20
2022-09-07T15:20:43.039Z,92.50
2022-09-07T15:23:13.396Z,92.10
2022-09-07T15:25:49.639Z,92.50
2022-09-07T15:34:03.132Z,92.20
2022-09-07T15:36:32.243Z,92.90
2022-09-07T15:39:01.287Z,93.10
2022-09-07T15:41:31.172Z,94.00
2022-09-07T15:44:00.249Z,93.90
2022-09-07T15:46:28.439Z,93.30
2022-09-07T15:48:57.376Z,93.10
2022-09-07T15:54:15.355Z,93.70
2022-09-07T15:57:48.304Z,93.50
2022-09-07T15:59:35.635Z,95.10
2022-09-07T16:02:03.834Z,94.70
2022-09-07T16:04:32.369Z,94.10
2022-09-07T16:07:01.969Z,95.90
2022-09-07T16:09:30.076Z,94.70
2022-09-07T16:13:00.050Z,96.40
2022-09-07T16:14:47.657Z,95.40
2022-09-07T16:20:04.793Z,96.10
2022-09-07T16:25:20.983Z,95.90
2022-09-07T16:27:50.372Z,95.30
2022-09-07T16:30:18.526Z,95.00
2022-09-07T16:32:46.744Z,95.50
2022-09-07T16:35:15.019Z,94.90
2022-09-07T16:40:31.715Z,95.30
2022-09-07T16:43:01.183Z,95.00
2022-09-07T16:48:17.624Z,95.80
2022-09-07T16:51:01.056Z,95.90
2022-09-07T16:53:30.301Z,95.50
2022-09-07T16:56:02.260Z,95.90
2022-09-07T16:58:36.740Z,96.00
2022-09-07T17:01:05.627Z,96.10
2022-09-07T17:03:33.876Z,97.20
2022-09-07T17:06:02.861Z,96.90
2022-09-07T17:08:31.105Z,97.10
2022-09-07T17:11:03.081Z,97.30
2022-09-07T17:13:34.409Z,97.30
2022-09-07T17:16:07.749Z,98.50
2022-09-07T17:21:26.292Z,98.00
2022-09-07T17:23:55.827Z,97.90
2022-09-07T17:26:27.295Z,99.00
2022-09-07T17:29:01.627Z,98.70
2022-09-07T17:34:22.406Z,99.30
2022-09-07T17:36:51.340Z,99.70
2022-09-07T17:39:20.097Z,99.90
2022-09-07T17:41:52.695Z,99.90
2022-09-07T17:44:23.354Z,99.90
2022-09-07T17:46:52.037Z,99.90
2022-09-07T17:49:20.154Z,99.90
2022-09-07T17:51:48.338Z,99.90
2022-09-07T17:54:18.081Z,99.90
2022-09-07T17:56:47.598Z,99.90
2022-09-07T18:02:05.407Z,99.90
2022-09-07T18:04:35.781Z,99.90
2022-09-07T18:07:04.629Z,99.90
2022-09-07T18:09:32.783Z,99.90
2022-09-07T18:12:00.865Z,99.90
2022-09-07T18:14:30.202Z,99.90
2022-09-07T18:16:58.313Z,99.90
2022-09-07T18:19:28.460Z,99.90
2022-09-07T18:21:56.658Z,99.90
2022-09-07T18:24:25.452Z,99.90
2022-09-07T18:26:54.956Z,99.90
2022-09-07T18:29:30.107Z,99.90
2022-09-07T18:32:00.216Z,99.90
2022-09-07T18:34:31.481Z,99.90
2022-09-07T18:37:00.342Z,99.90
2022-09-07T18:39:29.702Z,99.90
2022-09-07T18:41:57.902Z,99.90
2022-09-07T18:47:22.081Z,99.90
2022-09-07T18:49:54.685Z,99.90
2022-09-07T18:55:11.771Z,99.90
2022-09-07T18:57:40.074Z,99.90
2022-09-07T19:00:10.555Z,99.90
2022-09-07T19:02:38.923Z,99.90
2022-09-07T19:07:59.608Z,99.90
2022-09-07T19:10:27.929Z,99.90
2022-09-07T19:12:56.577Z,99.90
2022-09-07T19:15:24.886Z,99.90
2022-09-07T19:17:53.052Z,99.90
2022-09-07T19:20:22.589Z,99.90
2022-09-07T19:22:50.780Z,99.90
2022-09-07T19:25:19.439Z,99.90
2022-09-07T19:27:47.591Z,99.90
2022-09-07T19:30:17.527Z,99.90
2022-09-07T19:32:45.810Z,99.90
2022-09-07T19:35:13.931Z,99.90
2022-09-07T19:37:43.488Z,99.90
2022-09-07T19:40:15.932Z,99.90
2022-09-07T19:42:46.975Z,99.90
2022-09-07T19:45:15.862Z,99.90
2022-09-07T19:47:44.026Z,99.90
2022-09-07T19:50:12.207Z,99.90
2022-09-07T19:52:40.503Z,99.90
2022-09-07T19:55:13.976Z,99.90
2022-09-07T19:57:46.228Z,99.90
2022-09-07T20:00:15.368Z,99.90
2022-09-07T20:02:43.503Z,99.90
2022-09-07T20:05:11.833Z,99.90
2022-09-07T20:07:39.864Z,99.90
2022-09-07T20:10:10.389Z,99.90
2022-09-07T20:12:38.724Z,99.90
2022-09-07T20:15:07.713Z,99.90
2022-09-07T20:17:37.530Z,99.90
2022-09-07T20:20:08.958Z,99.90
2022-09-07T20:22:37.769Z,99.90
2022-09-07T20:25:10.223Z,99.90
2022-09-07T20:27:43.076Z,99.90
2022-09-07T20:30:13.361Z,99.90
2022-09-07T20:32:41.449Z,99.90
2022-09-07T20:35:11.203Z,99.90
2022-09-07T20:37:39.267Z,99.90
2022-09-07T20:40:08.577Z,99.90
2022-09-07T20:42:36.742Z,99.90
2022-09-07T20:45:09.755Z,99.90
2022-09-07T20:47:38.109Z,99.90
2022-09-07T20:50:07.228Z,99.90
2022-09-07T20:52:35.280Z,99.90
2022-09-07T20:55:03.273Z,99.90
2022-09-07T20:57:31.541Z,99.90
2022-09-07T20:59:59.615Z,99.90
2022-09-07T21:02:29.361Z,99.90
2022-09-07T21:04:57.548Z,99.90
2022-09-07T21:07:25.687Z,99.90
2022-09-07T21:09:53.627Z,99.90
2022-09-07T21:12:21.690Z,99.90
2022-09-07T21:14:49.763Z,99.90
2022-09-07T21:17:17.885Z,99.90
2022-09-07T21:19:47.370Z,99.90
2022-09-07T21:22:15.637Z,99.90
2022-09-07T21:24:43.776Z,99.90
2022-09-07T21:27:12.067Z,99.90
2022-09-07T21:29:40.132Z,99.90
2022-09-07T21:32:08.147Z,99.90
2022-09-07T21:34:36.278Z,99.90
2022-09-07T21:37:05.742Z,99.90
2022-09-07T21:39:33.860Z,99.90
2022-09-07T21:42:01.827Z,99.90
2022-09-07T21:44:29.866Z,99.90
2022-09-07T21:46:58.212Z,99.90
2022-09-07T21:49:26.299Z,99.90
2022-09-07T21:51:54.623Z,99.90
2022-09-07T21:54:24.050Z,99.90
2022-09-07T21:56:53.224Z,99.90
2022-09-07T21:59:21.198Z,99.90
2022-09-07T22:01:49.407Z,99.90
2022-09-07T22:04:17.547Z,99.90
2022-09-07T22:06:45.590Z,99.90
2022-09-07T22:09:13.736Z,99.90
2022-09-07T22:11:46.045Z,99.90
2022-09-07T22:14:15.710Z,99.90
2022-09-07T22:16:43.713Z,99.90
2022-09-07T22:19:11.839Z,99.90
2022-09-07T22:21:40.543Z,99.90
2022-09-07T22:24:08.835Z,99.90
2022-09-07T22:26:38.372Z,99.90
2022-09-07T22:29:09.406Z,99.90
2022-09-07T22:31:39.989Z,99.90
2022-09-07T22:34:09.445Z,99.90
2022-09-07T22:36:39.762Z,99.90
2022-09-07T22:39:11.384Z,99.90
2022-09-07T22:41:40.811Z,99.90
2022-09-07T22:44:13.259Z,99.90
2022-09-07T22:46:43.432Z,99.90
2022-09-07T22:49:12.912Z,99.90
2022-09-07T22:51:40.983Z,99.90
2022-09-07T22:54:09.349Z,99.90
2022-09-07T22:56:38.279Z,99.90
2022-09-07T22:59:08.457Z,99.90
2022-09-07T23:01:38.517Z,99.90
2022-09-07T23:04:06.801Z,99.90
2022-09-07T23:06:36.577Z,99.90
2022-09-07T23:09:06.754Z,99.90
2022-09-07T23:11:34.872Z,99.90
2022-09-07T23:14:05.007Z,99.90
2022-09-07T23:16:33.132Z,99.90
2022-09-07T23:19:02.688Z,99.90
2022-09-07T23:21:33.627Z,99.90
2022-09-07T23:24:02.024Z,99.90
2022-09-07T23:26:32.935Z,99.90
2022-09-07T23:29:02.761Z,99.90
2022-09-07T23:31:33.436Z,99.90
2022-09-07T23:34:06.142Z,99.90
2022-09-07T23:36:34.767Z,99.90
2022-09-07T23:39:03.263Z,99.90
2022-09-07T23:41:31.342Z,99.90
2022-09-07T23:43:59.485Z,99.90
2022-09-07T23:46:27.555Z,99.90
2022-09-07T23:48:55.656Z,99.90
2022-09-07T23:51:25.116Z,99.90
2022-09-07T23:53:53.977Z,99.90
2022-09-07T23:56:24.381Z,99.90
2022-09-07T23:58:52.776Z,99.90
